Airfield :
LOGIN :

Register | Disclaimer

   EN    FR    IT 

 










Legend :    VFR   Marginal VFR   IFR   Intensive IFR   Very Intensive IFR
Visi :
Ceiling :
>= 8 km
>= 3000ft
5 to 8 km
1000 to 3000 ft
1500m to 5 km
500 to 1000 ft
800 to 1500m
200 to 500 ft
< 800m
< 200 ft
Symbols :   Thunderstorms  Fog  Heavy snow  Heavy precipitations  Wind > 20 kt
SIGMETs :     Misc.  Thunderstorms  Icing  Turbulence  Mountain Waves  Volcanic Ashes






- Airport Elevation : 458 ft


LFSI - St-Dizier

CURRENT METAR :
  • 170000Z AUTO 27007KT 5000 -RA BR BKN009 BKN016 OVC030 09/08 Q1016

EXPIRED METARs :
  • 162330Z AUTO 27006KT 220V290 3500 RA BR OVC006 09/09 Q1016
  • 162300Z AUTO 29013KT 7000 -RA BKN009/// BKN014/// BKN022/// ///TCU 09/08 Q1015
  • 162230Z AUTO 30024KT 4300 RA BR FEW009/// SCT027/// BKN032/// ///TCU 10/08 Q1014
  • 162200Z AUTO 22017KT 9999 OVC041/// ///TCU 16/07 Q1012
  • 162130Z AUTO 21019G29KT 9999 BKN045 BKN066 BKN100 16/06 Q1011

TAF TAF LFSI
Valid from the 16 at 21:00 until the 17 at 21:00 UTC


162000Z 1621/1721 21020G35KT CAVOK
BECMG 1621/1624 26010KT 3000 RA BKN014
BECMG 1700/1703 9999 NSW BKN030
BECMG 1706/1709 3000 RA
BECMG 1709/1712 9999 NSW
TEMPO 1712/1718 4000 SHRA BKN020TCU



MET'MAP, your aeronautical weather chart ! - Copyright ORBIFLY December 2007 - Disclaimer

ORBIFLY MET'MAP TEAM :

Programming & Development : Alexandra Zaïnal
Concept & original design : Baudouin d'Aumeries
Assistance for programming : Marc-Olivier Méhu
Technical & hardware support : Manuel Goepfert

Contact : metmap@orbifly.com




SOURCES & CREDITS :

   NOAA